sensor_id;sensor_type;location;lat;lon;timestamp;P1;durP1;ratioP1;P2;durP2;ratioP2
56631;SDS011;42503;39.928;-75.152;2023-08-12T00:04:28;19.65;;;14.07;;
56631;SDS011;42503;39.928;-75.152;2023-08-12T00:14:30;20.50;;;13.27;;
56631;SDS011;42503;39.928;-75.152;2023-08-12T00:24:31;22.25;;;14.35;;
56631;SDS011;42503;39.928;-75.152;2023-08-12T00:34:35;19.25;;;14.80;;
56631;SDS011;42503;39.928;-75.152;2023-08-12T00:44:37;21.52;;;14.38;;
56631;SDS011;42503;39.928;-75.152;2023-08-12T00:54:38;19.27;;;14.18;;
56631;SDS011;42503;39.928;-75.152;2023-08-12T01:04:40;18.77;;;13.57;;
56631;SDS011;42503;39.928;-75.152;2023-08-12T01:14:50;18.13;;;15.23;;
56631;SDS011;42503;39.928;-75.152;2023-08-12T01:24:56;19.80;;;15.50;;
56631;SDS011;42503;39.928;-75.152;2023-08-12T01:35:05;21.85;;;16.58;;
56631;SDS011;42503;39.928;-75.152;2023-08-12T01:45:17;35.33;;;17.27;;
56631;SDS011;42503;39.928;-75.152;2023-08-12T01:55:19;22.00;;;17.05;;
56631;SDS011;42503;39.928;-75.152;2023-08-12T02:05:21;24.77;;;17.30;;
56631;SDS011;42503;39.928;-75.152;2023-08-12T02:15:25;24.00;;;17.38;;
56631;SDS011;42503;39.928;-75.152;2023-08-12T02:25:26;23.73;;;17.58;;
56631;SDS011;42503;39.928;-75.152;2023-08-12T02:35:27;19.67;;;16.30;;
56631;SDS011;42503;39.928;-75.152;2023-08-12T02:45:29;18.90;;;16.27;;
56631;SDS011;42503;39.928;-75.152;2023-08-12T02:55:30;18.80;;;15.75;;
56631;SDS011;42503;39.928;-75.152;2023-08-12T03:05:35;22.98;;;16.95;;
56631;SDS011;42503;39.928;-75.152;2023-08-12T03:15:39;28.17;;;17.42;;
56631;SDS011;42503;39.928;-75.152;2023-08-12T03:25:41;25.95;;;17.58;;
56631;SDS011;42503;39.928;-75.152;2023-08-12T03:35:44;25.75;;;17.35;;
56631;SDS011;42503;39.928;-75.152;2023-08-12T03:55:50;25.50;;;16.67;;
56631;SDS011;42503;39.928;-75.152;2023-08-12T04:05:52;20.67;;;16.48;;
56631;SDS011;42503;39.928;-75.152;2023-08-12T04:15:53;21.42;;;15.80;;
56631;SDS011;42503;39.928;-75.152;2023-08-12T04:25:58;18.33;;;15.80;;
56631;SDS011;42503;39.928;-75.152;2023-08-12T04:36:02;20.50;;;15.32;;
56631;SDS011;42503;39.928;-75.152;2023-08-12T04:46:03;26.55;;;16.10;;
56631;SDS011;42503;39.928;-75.152;2023-08-12T04:56:05;19.60;;;15.95;;
56631;SDS011;42503;39.928;-75.152;2023-08-12T05:06:06;20.08;;;15.55;;
56631;SDS011;42503;39.928;-75.152;2023-08-12T05:16:08;17.98;;;15.63;;
56631;SDS011;42503;39.928;-75.152;2023-08-12T05:26:09;19.20;;;15.30;;
56631;SDS011;42503;39.928;-75.152;2023-08-12T05:36:11;18.67;;;15.00;;
56631;SDS011;42503;39.928;-75.152;2023-08-12T05:46:12;18.35;;;15.15;;
56631;SDS011;42503;39.928;-75.152;2023-08-12T05:56:13;16.55;;;14.38;;
56631;SDS011;42503;39.928;-75.152;2023-08-12T06:06:15;15.40;;;13.40;;
56631;SDS011;42503;39.928;-75.152;2023-08-12T06:16:16;16.17;;;14.30;;
56631;SDS011;42503;39.928;-75.152;2023-08-12T06:26:18;17.13;;;13.90;;
56631;SDS011;42503;39.928;-75.152;2023-08-12T06:36:19;17.02;;;14.80;;
56631;SDS011;42503;39.928;-75.152;2023-08-12T06:46:20;15.70;;;14.00;;
56631;SDS011;42503;39.928;-75.152;2023-08-12T06:56:22;18.83;;;14.55;;
56631;SDS011;42503;39.928;-75.152;2023-08-12T07:06:26;18.48;;;14.30;;
56631;SDS011;42503;39.928;-75.152;2023-08-12T07:16:27;15.57;;;13.98;;
56631;SDS011;42503;39.928;-75.152;2023-08-12T07:26:29;16.23;;;13.90;;
56631;SDS011;42503;39.928;-75.152;2023-08-12T07:36:36;17.17;;;14.45;;
56631;SDS011;42503;39.928;-75.152;2023-08-12T07:46:37;15.23;;;13.63;;
56631;SDS011;42503;39.928;-75.152;2023-08-12T07:56:39;17.30;;;14.00;;
56631;SDS011;42503;39.928;-75.152;2023-08-12T08:06:43;17.88;;;14.13;;
56631;SDS011;42503;39.928;-75.152;2023-08-12T08:16:45;17.77;;;14.38;;
56631;SDS011;42503;39.928;-75.152;2023-08-12T08:26:46;15.50;;;13.90;;
56631;SDS011;42503;39.928;-75.152;2023-08-12T08:36:47;14.75;;;13.07;;
56631;SDS011;42503;39.928;-75.152;2023-08-12T08:46:52;16.73;;;14.75;;
56631;SDS011;42503;39.928;-75.152;2023-08-12T08:56:57;16.75;;;13.93;;
56631;SDS011;42503;39.928;-75.152;2023-08-12T09:07:01;18.27;;;13.80;;
56631;SDS011;42503;39.928;-75.152;2023-08-12T09:17:02;16.15;;;13.73;;
56631;SDS011;42503;39.928;-75.152;2023-08-12T09:27:04;15.00;;;13.02;;
56631;SDS011;42503;39.928;-75.152;2023-08-12T09:37:05;16.10;;;13.60;;
56631;SDS011;42503;39.928;-75.152;2023-08-12T09:47:07;14.50;;;12.85;;
56631;SDS011;42503;39.928;-75.152;2023-08-12T09:57:09;14.95;;;13.40;;
56631;SDS011;42503;39.928;-75.152;2023-08-12T10:07:12;15.30;;;13.18;;
56631;SDS011;42503;39.928;-75.152;2023-08-12T10:17:17;14.13;;;12.68;;
56631;SDS011;42503;39.928;-75.152;2023-08-12T10:27:19;14.82;;;13.27;;
56631;SDS011;42503;39.928;-75.152;2023-08-12T10:37:21;15.07;;;13.45;;
56631;SDS011;42503;39.928;-75.152;2023-08-12T10:47:25;14.88;;;12.68;;
56631;SDS011;42503;39.928;-75.152;2023-08-12T10:57:35;14.45;;;12.95;;
56631;SDS011;42503;39.928;-75.152;2023-08-12T11:07:43;17.08;;;13.85;;
56631;SDS011;42503;39.928;-75.152;2023-08-12T11:17:46;16.83;;;13.57;;
56631;SDS011;42503;39.928;-75.152;2023-08-12T11:27:50;15.13;;;13.13;;
56631;SDS011;42503;39.928;-75.152;2023-08-12T11:37:53;15.73;;;13.40;;
56631;SDS011;42503;39.928;-75.152;2023-08-12T11:47:56;15.43;;;13.68;;
56631;SDS011;42503;39.928;-75.152;2023-08-12T11:57:58;15.85;;;13.27;;
56631;SDS011;42503;39.928;-75.152;2023-08-12T12:07:59;16.20;;;13.63;;
56631;SDS011;42503;39.928;-75.152;2023-08-12T12:18:09;15.65;;;13.95;;
56631;SDS011;42503;39.928;-75.152;2023-08-12T12:28:11;14.57;;;12.95;;
56631;SDS011;42503;39.928;-75.152;2023-08-12T12:38:13;16.08;;;13.90;;
56631;SDS011;42503;39.928;-75.152;2023-08-12T12:48:15;16.30;;;14.60;;
56631;SDS011;42503;39.928;-75.152;2023-08-12T12:58:16;15.57;;;13.95;;
56631;SDS011;42503;39.928;-75.152;2023-08-12T13:08:18;15.90;;;13.50;;
56631;SDS011;42503;39.928;-75.152;2023-08-12T13:18:19;15.27;;;13.55;;
56631;SDS011;42503;39.928;-75.152;2023-08-12T13:28:21;16.05;;;14.27;;
56631;SDS011;42503;39.928;-75.152;2023-08-12T13:38:25;15.05;;;13.45;;
56631;SDS011;42503;39.928;-75.152;2023-08-12T13:48:26;16.98;;;15.18;;
56631;SDS011;42503;39.928;-75.152;2023-08-12T13:58:28;17.50;;;15.57;;
56631;SDS011;42503;39.928;-75.152;2023-08-12T14:08:29;18.02;;;16.13;;
56631;SDS011;42503;39.928;-75.152;2023-08-12T14:18:31;18.42;;;16.52;;
56631;SDS011;42503;39.928;-75.152;2023-08-12T14:28:33;42.78;;;17.67;;
56631;SDS011;42503;39.928;-75.152;2023-08-12T14:38:34;33.95;;;18.38;;
56631;SDS011;42503;39.928;-75.152;2023-08-12T14:48:36;34.05;;;19.33;;
56631;SDS011;42503;39.928;-75.152;2023-08-12T14:58:40;35.15;;;18.58;;
56631;SDS011;42503;39.928;-75.152;2023-08-12T15:08:45;26.58;;;20.25;;
56631;SDS011;42503;39.928;-75.152;2023-08-12T15:18:47;27.50;;;19.45;;
56631;SDS011;42503;39.928;-75.152;2023-08-12T15:28:48;26.33;;;19.13;;
56631;SDS011;42503;39.928;-75.152;2023-08-12T15:38:50;23.40;;;19.75;;
56631;SDS011;42503;39.928;-75.152;2023-08-12T15:48:51;24.08;;;19.25;;
56631;SDS011;42503;39.928;-75.152;2023-08-12T15:58:52;21.63;;;19.38;;
56631;SDS011;42503;39.928;-75.152;2023-08-12T16:08:54;21.48;;;19.08;;
56631;SDS011;42503;39.928;-75.152;2023-08-12T16:18:58;22.63;;;18.77;;
56631;SDS011;42503;39.928;-75.152;2023-08-12T16:28:59;21.88;;;18.42;;
56631;SDS011;42503;39.928;-75.152;2023-08-12T16:39:00;28.55;;;19.85;;
56631;SDS011;42503;39.928;-75.152;2023-08-12T16:49:02;26.20;;;21.48;;
56631;SDS011;42503;39.928;-75.152;2023-08-12T16:59:03;24.85;;;20.63;;
56631;SDS011;42503;39.928;-75.152;2023-08-12T17:09:05;27.70;;;20.58;;
56631;SDS011;42503;39.928;-75.152;2023-08-12T17:19:07;27.77;;;19.02;;
56631;SDS011;42503;39.928;-75.152;2023-08-12T17:29:08;27.25;;;18.13;;
56631;SDS011;42503;39.928;-75.152;2023-08-12T17:39:10;20.65;;;17.00;;
56631;SDS011;42503;39.928;-75.152;2023-08-12T17:49:11;18.00;;;15.00;;
56631;SDS011;42503;39.928;-75.152;2023-08-12T17:59:15;28.38;;;16.23;;
56631;SDS011;42503;39.928;-75.152;2023-08-12T18:09:17;46.50;;;16.08;;
56631;SDS011;42503;39.928;-75.152;2023-08-12T18:19:19;66.53;;;15.50;;
56631;SDS011;42503;39.928;-75.152;2023-08-12T18:29:21;32.40;;;13.55;;
56631;SDS011;42503;39.928;-75.152;2023-08-12T18:39:22;38.83;;;13.27;;
56631;SDS011;42503;39.928;-75.152;2023-08-12T18:49:24;55.58;;;15.20;;
56631;SDS011;42503;39.928;-75.152;2023-08-12T18:59:26;34.70;;;12.70;;
56631;SDS011;42503;39.928;-75.152;2023-08-12T19:09:29;35.95;;;11.52;;
56631;SDS011;42503;39.928;-75.152;2023-08-12T19:19:30;49.33;;;12.95;;
56631;SDS011;42503;39.928;-75.152;2023-08-12T19:29:32;26.05;;;10.65;;
56631;SDS011;42503;39.928;-75.152;2023-08-12T19:39:34;27.02;;;10.30;;
56631;SDS011;42503;39.928;-75.152;2023-08-12T19:49:35;21.65;;;10.82;;
56631;SDS011;42503;39.928;-75.152;2023-08-12T19:59:36;22.95;;;10.07;;
56631;SDS011;42503;39.928;-75.152;2023-08-12T20:09:38;15.48;;;9.35;;
56631;SDS011;42503;39.928;-75.152;2023-08-12T20:19:39;16.77;;;9.32;;
56631;SDS011;42503;39.928;-75.152;2023-08-12T20:29:40;14.93;;;8.48;;
56631;SDS011;42503;39.928;-75.152;2023-08-12T20:39:42;16.20;;;9.20;;
56631;SDS011;42503;39.928;-75.152;2023-08-12T20:49:43;25.15;;;11.40;;
56631;SDS011;42503;39.928;-75.152;2023-08-12T20:59:45;24.02;;;11.38;;
56631;SDS011;42503;39.928;-75.152;2023-08-12T21:09:47;26.95;;;10.85;;
56631;SDS011;42503;39.928;-75.152;2023-08-12T21:19:48;25.63;;;11.90;;
56631;SDS011;42503;39.928;-75.152;2023-08-12T21:29:50;17.05;;;10.32;;
56631;SDS011;42503;39.928;-75.152;2023-08-12T21:39:51;17.73;;;11.77;;
56631;SDS011;42503;39.928;-75.152;2023-08-12T21:49:53;21.95;;;11.38;;
56631;SDS011;42503;39.928;-75.152;2023-08-12T21:59:54;19.08;;;11.00;;
56631;SDS011;42503;39.928;-75.152;2023-08-12T22:09:56;16.13;;;11.13;;
56631;SDS011;42503;39.928;-75.152;2023-08-12T22:19:58;17.95;;;12.18;;
56631;SDS011;42503;39.928;-75.152;2023-08-12T22:29:59;16.48;;;10.77;;
56631;SDS011;42503;39.928;-75.152;2023-08-12T22:40:04;18.80;;;12.05;;
56631;SDS011;42503;39.928;-75.152;2023-08-12T22:50:06;14.75;;;10.77;;
56631;SDS011;42503;39.928;-75.152;2023-08-12T23:00:10;15.73;;;11.35;;
56631;SDS011;42503;39.928;-75.152;2023-08-12T23:10:11;14.27;;;11.27;;
56631;SDS011;42503;39.928;-75.152;2023-08-12T23:20:13;14.50;;;10.45;;
56631;SDS011;42503;39.928;-75.152;2023-08-12T23:30:14;15.60;;;11.15;;
56631;SDS011;42503;39.928;-75.152;2023-08-12T23:40:16;12.57;;;10.35;;
56631;SDS011;42503;39.928;-75.152;2023-08-12T23:50:18;13.40;;;10.68;;
